Hickory, Mississippi
Current Conditions -  °F | °C
As of 3:58 PM on Tuesday 25 Nov 2014 (Local Time) from KMEI Reporting Station
Overcast Overcast  
Wind Chill: 51°   Ceiling: 10000
Heat Index: 51°   Visibility: 10mi
Dew Point: 29°   Wind: 3mph
Humidity: 43%   Direction: 300°WNW
Pressure: 30.13"   Gusts: NA
Location:  32.32°N, 89.03°W
Report Text: KMEI 252158Z 30003KT 10SM BKN100 OVC120 11/M02 A3013 RMK AO2 SLP203 T01061017
Loading
Personal Weather Stations






























Interactive Weather Map New forecast layout! Learn more

10-Day Weather Forecast

Advertisements
Track Severe Weather on mobile